sensor_id;sensor_type;location;lat;lon;timestamp;P1;durP1;ratioP1;P2;durP2;ratioP2
19414;SDS011;9843;48.882;12.592;2023-08-07T00:01:15;3.13;;;2.77;;
19414;SDS011;9843;48.882;12.592;2023-08-07T00:03:42;3.87;;;2.77;;
19414;SDS011;9843;48.882;12.592;2023-08-07T00:06:09;2.93;;;2.60;;
19414;SDS011;9843;48.882;12.592;2023-08-07T00:08:36;3.60;;;2.77;;
19414;SDS011;9843;48.882;12.592;2023-08-07T00:11:04;4.20;;;3.40;;
19414;SDS011;9843;48.882;12.592;2023-08-07T00:13:31;5.67;;;3.47;;
19414;SDS011;9843;48.882;12.592;2023-08-07T00:15:59;3.17;;;2.97;;
19414;SDS011;9843;48.882;12.592;2023-08-07T00:18:27;2.87;;;2.67;;
19414;SDS011;9843;48.882;12.592;2023-08-07T00:20:54;3.73;;;2.87;;
19414;SDS011;9843;48.882;12.592;2023-08-07T00:23:21;3.13;;;2.80;;
19414;SDS011;9843;48.882;12.592;2023-08-07T00:25:48;3.07;;;2.77;;
19414;SDS011;9843;48.882;12.592;2023-08-07T00:28:15;5.20;;;2.73;;
19414;SDS011;9843;48.882;12.592;2023-08-07T00:30:42;3.73;;;3.43;;
19414;SDS011;9843;48.882;12.592;2023-08-07T00:33:10;4.93;;;3.50;;
19414;SDS011;9843;48.882;12.592;2023-08-07T00:35:37;3.77;;;2.80;;
19414;SDS011;9843;48.882;12.592;2023-08-07T00:38:04;4.10;;;3.10;;
19414;SDS011;9843;48.882;12.592;2023-08-07T00:40:38;3.37;;;3.17;;
19414;SDS011;9843;48.882;12.592;2023-08-07T00:43:05;3.87;;;3.10;;
19414;SDS011;9843;48.882;12.592;2023-08-07T00:45:33;2.73;;;2.30;;
19414;SDS011;9843;48.882;12.592;2023-08-07T00:48:01;3.83;;;2.87;;
19414;SDS011;9843;48.882;12.592;2023-08-07T00:50:29;3.00;;;2.73;;
19414;SDS011;9843;48.882;12.592;2023-08-07T00:52:56;3.10;;;2.70;;
19414;SDS011;9843;48.882;12.592;2023-08-07T00:55:24;2.73;;;2.57;;
19414;SDS011;9843;48.882;12.592;2023-08-07T00:57:51;2.67;;;2.33;;
19414;SDS011;9843;48.882;12.592;2023-08-07T01:00:18;4.17;;;2.53;;
19414;SDS011;9843;48.882;12.592;2023-08-07T01:02:45;2.50;;;2.30;;
19414;SDS011;9843;48.882;12.592;2023-08-07T01:05:14;5.53;;;3.27;;
19414;SDS011;9843;48.882;12.592;2023-08-07T01:07:42;2.23;;;2.13;;
19414;SDS011;9843;48.882;12.592;2023-08-07T01:10:09;4.83;;;2.57;;
19414;SDS011;9843;48.882;12.592;2023-08-07T01:12:40;1.97;;;1.87;;
19414;SDS011;9843;48.882;12.592;2023-08-07T01:15:10;2.50;;;2.30;;
19414;SDS011;9843;48.882;12.592;2023-08-07T01:17:39;3.00;;;2.20;;
19414;SDS011;9843;48.882;12.592;2023-08-07T01:20:07;3.80;;;2.17;;
19414;SDS011;9843;48.882;12.592;2023-08-07T01:22:36;3.90;;;2.00;;
19414;SDS011;9843;48.882;12.592;2023-08-07T01:25:03;2.80;;;2.60;;
19414;SDS011;9843;48.882;12.592;2023-08-07T01:27:33;4.63;;;3.00;;
19414;SDS011;9843;48.882;12.592;2023-08-07T01:30:06;4.27;;;2.17;;
19414;SDS011;9843;48.882;12.592;2023-08-07T01:32:42;6.27;;;2.10;;
19414;SDS011;9843;48.882;12.592;2023-08-07T01:35:12;2.67;;;2.47;;
19414;SDS011;9843;48.882;12.592;2023-08-07T01:37:42;5.03;;;2.50;;
19414;SDS011;9843;48.882;12.592;2023-08-07T01:40:10;2.17;;;1.97;;
19414;SDS011;9843;48.882;12.592;2023-08-07T01:42:37;2.10;;;2.00;;
19414;SDS011;9843;48.882;12.592;2023-08-07T01:45:05;3.30;;;2.20;;
19414;SDS011;9843;48.882;12.592;2023-08-07T01:47:32;3.17;;;2.23;;
19414;SDS011;9843;48.882;12.592;2023-08-07T01:49:59;1.63;;;1.60;;
19414;SDS011;9843;48.882;12.592;2023-08-07T01:52:26;1.90;;;1.80;;
19414;SDS011;9843;48.882;12.592;2023-08-07T01:54:55;2.23;;;2.13;;
19414;SDS011;9843;48.882;12.592;2023-08-07T01:57:22;1.83;;;1.77;;
19414;SDS011;9843;48.882;12.592;2023-08-07T01:59:49;2.30;;;2.10;;
19414;SDS011;9843;48.882;12.592;2023-08-07T02:02:16;2.03;;;1.90;;
19414;SDS011;9843;48.882;12.592;2023-08-07T02:04:43;2.50;;;2.30;;
19414;SDS011;9843;48.882;12.592;2023-08-07T02:07:10;4.37;;;2.00;;
19414;SDS011;9843;48.882;12.592;2023-08-07T02:09:37;1.90;;;1.80;;
19414;SDS011;9843;48.882;12.592;2023-08-07T02:12:06;2.50;;;2.17;;
19414;SDS011;9843;48.882;12.592;2023-08-07T02:14:33;2.23;;;2.13;;
19414;SDS011;9843;48.882;12.592;2023-08-07T02:17:00;2.00;;;1.90;;
19414;SDS011;9843;48.882;12.592;2023-08-07T02:19:27;2.03;;;1.80;;
19414;SDS011;9843;48.882;12.592;2023-08-07T02:21:54;1.97;;;1.87;;
19414;SDS011;9843;48.882;12.592;2023-08-07T02:24:21;2.63;;;2.40;;
19414;SDS011;9843;48.882;12.592;2023-08-07T02:26:48;7.80;;;2.13;;
19414;SDS011;9843;48.882;12.592;2023-08-07T02:29:17;2.13;;;2.03;;
19414;SDS011;9843;48.882;12.592;2023-08-07T02:31:44;6.67;;;2.20;;
19414;SDS011;9843;48.882;12.592;2023-08-07T02:34:11;2.87;;;2.67;;
19414;SDS011;9843;48.882;12.592;2023-08-07T02:36:38;2.37;;;2.17;;
19414;SDS011;9843;48.882;12.592;2023-08-07T02:39:05;5.03;;;2.50;;
19414;SDS011;9843;48.882;12.592;2023-08-07T02:41:32;2.47;;;2.37;;
19414;SDS011;9843;48.882;12.592;2023-08-07T02:43:58;2.33;;;2.23;;
19414;SDS011;9843;48.882;12.592;2023-08-07T02:46:26;2.53;;;2.40;;
19414;SDS011;9843;48.882;12.592;2023-08-07T02:48:53;2.30;;;2.20;;
19414;SDS011;9843;48.882;12.592;2023-08-07T02:51:20;2.63;;;2.50;;
19414;SDS011;9843;48.882;12.592;2023-08-07T02:53:47;2.53;;;2.43;;
19414;SDS011;9843;48.882;12.592;2023-08-07T02:56:15;2.40;;;2.27;;
19414;SDS011;9843;48.882;12.592;2023-08-07T02:58:42;2.30;;;2.10;;
19414;SDS011;9843;48.882;12.592;2023-08-07T03:01:09;2.70;;;2.20;;
19414;SDS011;9843;48.882;12.592;2023-08-07T03:03:37;2.73;;;2.53;;
19414;SDS011;9843;48.882;12.592;2023-08-07T03:06:04;2.80;;;2.60;;
19414;SDS011;9843;48.882;12.592;2023-08-07T03:08:32;2.43;;;2.33;;
19414;SDS011;9843;48.882;12.592;2023-08-07T03:10:59;2.40;;;2.30;;
19414;SDS011;9843;48.882;12.592;2023-08-07T03:13:26;2.23;;;2.10;;
19414;SDS011;9843;48.882;12.592;2023-08-07T03:15:58;2.63;;;2.43;;
19414;SDS011;9843;48.882;12.592;2023-08-07T03:18:25;2.80;;;2.60;;
19414;SDS011;9843;48.882;12.592;2023-08-07T03:20:53;2.30;;;2.20;;
19414;SDS011;9843;48.882;12.592;2023-08-07T03:23:21;3.77;;;2.53;;
19414;SDS011;9843;48.882;12.592;2023-08-07T03:25:48;2.73;;;2.53;;
19414;SDS011;9843;48.882;12.592;2023-08-07T03:28:15;2.53;;;2.37;;
19414;SDS011;9843;48.882;12.592;2023-08-07T03:30:42;2.77;;;2.57;;
19414;SDS011;9843;48.882;12.592;2023-08-07T03:33:09;2.70;;;2.53;;
19414;SDS011;9843;48.882;12.592;2023-08-07T03:35:36;2.83;;;2.57;;
19414;SDS011;9843;48.882;12.592;2023-08-07T03:38:05;3.17;;;2.97;;
19414;SDS011;9843;48.882;12.592;2023-08-07T03:40:32;2.70;;;2.50;;
19414;SDS011;9843;48.882;12.592;2023-08-07T03:43:00;2.57;;;2.40;;
19414;SDS011;9843;48.882;12.592;2023-08-07T03:45:27;2.60;;;2.40;;
19414;SDS011;9843;48.882;12.592;2023-08-07T03:47:54;2.77;;;2.63;;
19414;SDS011;9843;48.882;12.592;2023-08-07T03:50:21;3.13;;;2.93;;
19414;SDS011;9843;48.882;12.592;2023-08-07T03:52:48;2.63;;;2.43;;
19414;SDS011;9843;48.882;12.592;2023-08-07T03:55:16;2.80;;;2.60;;
19414;SDS011;9843;48.882;12.592;2023-08-07T03:57:43;2.40;;;2.30;;
19414;SDS011;9843;48.882;12.592;2023-08-07T04:00:11;2.47;;;2.27;;
19414;SDS011;9843;48.882;12.592;2023-08-07T04:02:38;2.70;;;2.50;;
19414;SDS011;9843;48.882;12.592;2023-08-07T04:05:05;2.43;;;2.20;;
19414;SDS011;9843;48.882;12.592;2023-08-07T04:07:32;2.50;;;2.40;;
19414;SDS011;9843;48.882;12.592;2023-08-07T04:09:59;2.90;;;2.70;;
19414;SDS011;9843;48.882;12.592;2023-08-07T04:12:28;3.47;;;2.53;;
19414;SDS011;9843;48.882;12.592;2023-08-07T04:14:55;2.93;;;2.73;;
19414;SDS011;9843;48.882;12.592;2023-08-07T04:17:22;2.73;;;2.60;;
19414;SDS011;9843;48.882;12.592;2023-08-07T04:19:49;3.57;;;2.60;;
19414;SDS011;9843;48.882;12.592;2023-08-07T04:22:16;3.30;;;3.00;;
19414;SDS011;9843;48.882;12.592;2023-08-07T04:24:43;4.57;;;3.17;;
19414;SDS011;9843;48.882;12.592;2023-08-07T04:27:11;3.03;;;2.80;;
19414;SDS011;9843;48.882;12.592;2023-08-07T04:29:39;4.03;;;3.17;;
19414;SDS011;9843;48.882;12.592;2023-08-07T04:32:06;3.97;;;3.60;;
19414;SDS011;9843;48.882;12.592;2023-08-07T04:34:34;3.53;;;3.00;;
19414;SDS011;9843;48.882;12.592;2023-08-07T04:37:01;3.30;;;3.00;;
19414;SDS011;9843;48.882;12.592;2023-08-07T04:39:28;5.47;;;3.87;;
19414;SDS011;9843;48.882;12.592;2023-08-07T04:41:55;4.50;;;3.47;;
19414;SDS011;9843;48.882;12.592;2023-08-07T04:44:23;6.97;;;3.70;;
19414;SDS011;9843;48.882;12.592;2023-08-07T04:46:51;4.17;;;3.87;;
19414;SDS011;9843;48.882;12.592;2023-08-07T04:49:18;5.47;;;3.97;;
19414;SDS011;9843;48.882;12.592;2023-08-07T04:51:45;3.70;;;3.40;;
19414;SDS011;9843;48.882;12.592;2023-08-07T04:54:12;3.63;;;3.17;;
19414;SDS011;9843;48.882;12.592;2023-08-07T04:56:39;5.63;;;3.27;;
19414;SDS011;9843;48.882;12.592;2023-08-07T04:59:09;4.20;;;3.93;;
19414;SDS011;9843;48.882;12.592;2023-08-07T05:01:36;3.70;;;3.37;;
19414;SDS011;9843;48.882;12.592;2023-08-07T05:04:05;3.70;;;3.40;;
19414;SDS011;9843;48.882;12.592;2023-08-07T05:06:32;3.93;;;3.53;;
19414;SDS011;9843;48.882;12.592;2023-08-07T05:09:00;3.90;;;3.60;;
19414;SDS011;9843;48.882;12.592;2023-08-07T05:11:28;5.93;;;3.73;;
19414;SDS011;9843;48.882;12.592;2023-08-07T05:13:55;5.90;;;4.70;;
19414;SDS011;9843;48.882;12.592;2023-08-07T05:16:22;4.30;;;3.90;;
19414;SDS011;9843;48.882;12.592;2023-08-07T05:18:49;4.60;;;3.43;;
19414;SDS011;9843;48.882;12.592;2023-08-07T05:21:18;6.03;;;3.63;;
19414;SDS011;9843;48.882;12.592;2023-08-07T05:23:45;3.47;;;3.17;;
19414;SDS011;9843;48.882;12.592;2023-08-07T05:26:12;7.57;;;3.87;;
19414;SDS011;9843;48.882;12.592;2023-08-07T05:28:39;4.37;;;3.70;;
19414;SDS011;9843;48.882;12.592;2023-08-07T05:31:07;3.83;;;3.53;;
19414;SDS011;9843;48.882;12.592;2023-08-07T05:33:34;4.03;;;3.57;;
19414;SDS011;9843;48.882;12.592;2023-08-07T05:36:01;3.93;;;3.63;;
19414;SDS011;9843;48.882;12.592;2023-08-07T05:38:29;4.83;;;3.80;;
19414;SDS011;9843;48.882;12.592;2023-08-07T05:40:56;6.10;;;3.80;;
19414;SDS011;9843;48.882;12.592;2023-08-07T05:43:29;3.40;;;3.10;;
19414;SDS011;9843;48.882;12.592;2023-08-07T05:45:56;4.77;;;3.87;;
19414;SDS011;9843;48.882;12.592;2023-08-07T05:48:23;3.70;;;3.40;;
19414;SDS011;9843;48.882;12.592;2023-08-07T05:50:51;6.13;;;3.50;;
19414;SDS011;9843;48.882;12.592;2023-08-07T05:53:19;4.10;;;3.70;;
19414;SDS011;9843;48.882;12.592;2023-08-07T05:55:47;3.73;;;3.43;;
19414;SDS011;9843;48.882;12.592;2023-08-07T05:58:14;3.53;;;3.20;;
19414;SDS011;9843;48.882;12.592;2023-08-07T06:00:41;3.57;;;3.27;;
19414;SDS011;9843;48.882;12.592;2023-08-07T06:03:09;5.10;;;4.43;;
19414;SDS011;9843;48.882;12.592;2023-08-07T06:05:36;7.87;;;5.47;;
19414;SDS011;9843;48.882;12.592;2023-08-07T06:08:03;3.20;;;2.90;;
19414;SDS011;9843;48.882;12.592;2023-08-07T06:10:30;3.97;;;3.67;;
19414;SDS011;9843;48.882;12.592;2023-08-07T06:12:59;5.03;;;4.10;;
19414;SDS011;9843;48.882;12.592;2023-08-07T06:15:26;4.33;;;3.97;;
19414;SDS011;9843;48.882;12.592;2023-08-07T06:17:54;5.93;;;3.60;;
19414;SDS011;9843;48.882;12.592;2023-08-07T06:20:21;5.07;;;4.67;;
19414;SDS011;9843;48.882;12.592;2023-08-07T06:22:48;3.87;;;3.60;;
19414;SDS011;9843;48.882;12.592;2023-08-07T06:25:15;5.13;;;4.27;;
19414;SDS011;9843;48.882;12.592;2023-08-07T06:27:43;4.00;;;3.70;;
19414;SDS011;9843;48.882;12.592;2023-08-07T06:30:12;6.87;;;3.73;;
19414;SDS011;9843;48.882;12.592;2023-08-07T06:32:40;5.37;;;4.37;;
19414;SDS011;9843;48.882;12.592;2023-08-07T06:35:07;4.37;;;4.00;;
19414;SDS011;9843;48.882;12.592;2023-08-07T06:37:34;4.17;;;3.80;;
19414;SDS011;9843;48.882;12.592;2023-08-07T06:40:01;3.80;;;3.50;;
19414;SDS011;9843;48.882;12.592;2023-08-07T06:42:29;3.87;;;3.50;;
19414;SDS011;9843;48.882;12.592;2023-08-07T06:44:56;6.90;;;3.67;;
19414;SDS011;9843;48.882;12.592;2023-08-07T06:47:24;8.30;;;4.03;;
19414;SDS011;9843;48.882;12.592;2023-08-07T06:49:51;4.23;;;3.87;;
19414;SDS011;9843;48.882;12.592;2023-08-07T06:52:18;3.73;;;3.40;;
19414;SDS011;9843;48.882;12.592;2023-08-07T06:54:46;3.73;;;3.43;;
19414;SDS011;9843;48.882;12.592;2023-08-07T06:57:13;4.13;;;3.73;;
19414;SDS011;9843;48.882;12.592;2023-08-07T06:59:40;4.83;;;4.13;;
19414;SDS011;9843;48.882;12.592;2023-08-07T07:02:07;4.17;;;3.87;;
19414;SDS011;9843;48.882;12.592;2023-08-07T07:04:36;7.33;;;3.90;;
19414;SDS011;9843;48.882;12.592;2023-08-07T07:07:03;4.13;;;3.43;;
19414;SDS011;9843;48.882;12.592;2023-08-07T07:09:30;4.10;;;3.67;;
19414;SDS011;9843;48.882;12.592;2023-08-07T07:11:57;4.57;;;3.77;;
19414;SDS011;9843;48.882;12.592;2023-08-07T07:14:24;5.90;;;3.80;;
19414;SDS011;9843;48.882;12.592;2023-08-07T07:16:51;5.43;;;4.07;;
19414;SDS011;9843;48.882;12.592;2023-08-07T07:19:18;4.00;;;3.53;;
19414;SDS011;9843;48.882;12.592;2023-08-07T07:21:47;6.10;;;3.90;;
19414;SDS011;9843;48.882;12.592;2023-08-07T07:24:14;4.30;;;3.90;;
19414;SDS011;9843;48.882;12.592;2023-08-07T07:26:41;5.63;;;3.40;;
19414;SDS011;9843;48.882;12.592;2023-08-07T07:29:08;4.37;;;3.97;;
19414;SDS011;9843;48.882;12.592;2023-08-07T07:31:35;5.07;;;4.63;;
19414;SDS011;9843;48.882;12.592;2023-08-07T07:34:02;8.77;;;5.07;;
19414;SDS011;9843;48.882;12.592;2023-08-07T07:36:29;10.07;;;4.33;;
19414;SDS011;9843;48.882;12.592;2023-08-07T07:38:57;5.27;;;4.00;;
19414;SDS011;9843;48.882;12.592;2023-08-07T07:41:24;6.23;;;4.73;;
19414;SDS011;9843;48.882;12.592;2023-08-07T07:43:52;7.33;;;4.90;;
19414;SDS011;9843;48.882;12.592;2023-08-07T07:46:21;4.73;;;3.80;;
19414;SDS011;9843;48.882;12.592;2023-08-07T07:48:48;5.00;;;4.60;;
19414;SDS011;9843;48.882;12.592;2023-08-07T07:51:15;6.77;;;3.77;;
19414;SDS011;9843;48.882;12.592;2023-08-07T07:53:43;6.83;;;4.47;;
19414;SDS011;9843;48.882;12.592;2023-08-07T07:56:11;4.05;;;3.75;;
19414;SDS011;9843;48.882;12.592;2023-08-07T07:58:38;4.37;;;3.93;;
19414;SDS011;9843;48.882;12.592;2023-08-07T08:01:06;7.90;;;4.00;;
19414;SDS011;9843;48.882;12.592;2023-08-07T08:03:33;4.27;;;3.87;;
19414;SDS011;9843;48.882;12.592;2023-08-07T08:06:00;3.63;;;3.33;;
19414;SDS011;9843;48.882;12.592;2023-08-07T08:08:28;10.90;;;4.70;;
19414;SDS011;9843;48.882;12.592;2023-08-07T08:10:55;5.13;;;4.60;;
19414;SDS011;9843;48.882;12.592;2023-08-07T08:13:23;3.70;;;3.40;;
19414;SDS011;9843;48.882;12.592;2023-08-07T08:15:51;5.43;;;4.33;;
19414;SDS011;9843;48.882;12.592;2023-08-07T08:18:18;3.80;;;3.37;;
19414;SDS011;9843;48.882;12.592;2023-08-07T08:20:45;4.73;;;4.17;;
19414;SDS011;9843;48.882;12.592;2023-08-07T08:23:12;6.20;;;3.67;;
19414;SDS011;9843;48.882;12.592;2023-08-07T08:25:39;3.97;;;3.57;;
19414;SDS011;9843;48.882;12.592;2023-08-07T08:28:06;4.33;;;3.90;;
19414;SDS011;9843;48.882;12.592;2023-08-07T08:30:34;9.87;;;4.80;;
19414;SDS011;9843;48.882;12.592;2023-08-07T08:33:01;5.33;;;3.73;;
19414;SDS011;9843;48.882;12.592;2023-08-07T08:35:30;3.90;;;3.60;;
19414;SDS011;9843;48.882;12.592;2023-08-07T08:37:57;3.00;;;2.80;;
19414;SDS011;9843;48.882;12.592;2023-08-07T08:40:24;4.00;;;3.60;;
19414;SDS011;9843;48.882;12.592;2023-08-07T08:42:52;3.43;;;3.13;;
19414;SDS011;9843;48.882;12.592;2023-08-07T08:45:23;5.83;;;3.23;;
19414;SDS011;9843;48.882;12.592;2023-08-07T08:47:54;3.63;;;3.10;;
19414;SDS011;9843;48.882;12.592;2023-08-07T08:50:22;4.37;;;2.77;;
19414;SDS011;9843;48.882;12.592;2023-08-07T08:52:49;2.97;;;2.73;;
19414;SDS011;9843;48.882;12.592;2023-08-07T08:55:18;2.67;;;2.47;;
19414;SDS011;9843;48.882;12.592;2023-08-07T08:57:47;3.73;;;3.00;;
19414;SDS011;9843;48.882;12.592;2023-08-07T09:00:15;4.67;;;2.83;;
19414;SDS011;9843;48.882;12.592;2023-08-07T09:02:45;4.27;;;3.20;;
19414;SDS011;9843;48.882;12.592;2023-08-07T09:05:15;6.60;;;3.53;;
19414;SDS011;9843;48.882;12.592;2023-08-07T09:07:42;3.80;;;3.13;;
19414;SDS011;9843;48.882;12.592;2023-08-07T09:10:12;3.03;;;2.60;;
19414;SDS011;9843;48.882;12.592;2023-08-07T09:12:39;2.77;;;2.30;;
19414;SDS011;9843;48.882;12.592;2023-08-07T09:15:07;3.77;;;2.70;;
19414;SDS011;9843;48.882;12.592;2023-08-07T09:17:38;4.00;;;3.17;;
19414;SDS011;9843;48.882;12.592;2023-08-07T09:20:06;2.53;;;2.33;;
19414;SDS011;9843;48.882;12.592;2023-08-07T09:22:37;3.40;;;2.63;;
19414;SDS011;9843;48.882;12.592;2023-08-07T09:25:05;4.60;;;2.47;;
19414;SDS011;9843;48.882;12.592;2023-08-07T09:27:32;3.47;;;2.40;;
19414;SDS011;9843;48.882;12.592;2023-08-07T09:30:01;2.60;;;2.40;;
19414;SDS011;9843;48.882;12.592;2023-08-07T09:32:28;4.73;;;2.80;;
19414;SDS011;9843;48.882;12.592;2023-08-07T09:34:56;3.27;;;3.03;;
19414;SDS011;9843;48.882;12.592;2023-08-07T09:37:23;5.40;;;3.10;;
19414;SDS011;9843;48.882;12.592;2023-08-07T09:39:51;4.47;;;3.23;;
19414;SDS011;9843;48.882;12.592;2023-08-07T09:42:18;2.60;;;2.40;;
19414;SDS011;9843;48.882;12.592;2023-08-07T09:44:45;3.60;;;2.37;;
19414;SDS011;9843;48.882;12.592;2023-08-07T09:47:14;2.53;;;2.03;;
19414;SDS011;9843;48.882;12.592;2023-08-07T09:49:41;6.80;;;2.90;;
19414;SDS011;9843;48.882;12.592;2023-08-07T09:52:08;3.30;;;2.83;;
19414;SDS011;9843;48.882;12.592;2023-08-07T09:54:36;4.13;;;2.93;;
19414;SDS011;9843;48.882;12.592;2023-08-07T09:57:05;3.07;;;2.77;;
19414;SDS011;9843;48.882;12.592;2023-08-07T09:59:32;4.57;;;2.97;;
19414;SDS011;9843;48.882;12.592;2023-08-07T10:01:59;5.60;;;3.47;;
19414;SDS011;9843;48.882;12.592;2023-08-07T10:04:28;3.63;;;2.83;;
19414;SDS011;9843;48.882;12.592;2023-08-07T10:06:55;2.93;;;2.73;;
19414;SDS011;9843;48.882;12.592;2023-08-07T10:09:23;4.27;;;2.70;;
19414;SDS011;9843;48.882;12.592;2023-08-07T10:11:50;2.63;;;2.43;;
19414;SDS011;9843;48.882;12.592;2023-08-07T10:14:19;4.97;;;2.80;;
19414;SDS011;9843;48.882;12.592;2023-08-07T10:16:46;4.33;;;3.93;;
19414;SDS011;9843;48.882;12.592;2023-08-07T10:19:14;4.07;;;3.67;;
19414;SDS011;9843;48.882;12.592;2023-08-07T10:21:41;5.53;;;3.73;;
19414;SDS011;9843;48.882;12.592;2023-08-07T10:24:10;6.93;;;3.43;;
19414;SDS011;9843;48.882;12.592;2023-08-07T10:26:39;3.70;;;3.40;;
19414;SDS011;9843;48.882;12.592;2023-08-07T10:29:09;3.47;;;3.03;;
19414;SDS011;9843;48.882;12.592;2023-08-07T10:31:38;4.47;;;3.17;;
19414;SDS011;9843;48.882;12.592;2023-08-07T10:34:07;3.17;;;2.97;;
19414;SDS011;9843;48.882;12.592;2023-08-07T10:36:35;7.80;;;4.43;;
19414;SDS011;9843;48.882;12.592;2023-08-07T10:39:07;6.37;;;3.37;;
19414;SDS011;9843;48.882;12.592;2023-08-07T10:41:38;4.30;;;3.83;;
19414;SDS011;9843;48.882;12.592;2023-08-07T10:44:05;5.97;;;3.47;;
19414;SDS011;9843;48.882;12.592;2023-08-07T10:46:46;4.63;;;3.87;;
19414;SDS011;9843;48.882;12.592;2023-08-07T10:49:19;12.53;;;4.53;;
19414;SDS011;9843;48.882;12.592;2023-08-07T10:51:56;6.17;;;4.57;;
19414;SDS011;9843;48.882;12.592;2023-08-07T10:54:23;7.10;;;4.03;;
19414;SDS011;9843;48.882;12.592;2023-08-07T10:56:52;6.30;;;3.60;;
19414;SDS011;9843;48.882;12.592;2023-08-07T10:59:19;3.40;;;3.10;;
19414;SDS011;9843;48.882;12.592;2023-08-07T11:01:51;4.33;;;3.93;;
19414;SDS011;9843;48.882;12.592;2023-08-07T11:04:18;6.37;;;4.17;;
19414;SDS011;9843;48.882;12.592;2023-08-07T11:06:47;4.77;;;3.07;;
19414;SDS011;9843;48.882;12.592;2023-08-07T11:09:14;9.13;;;3.63;;
19414;SDS011;9843;48.882;12.592;2023-08-07T11:11:41;3.30;;;2.87;;
19414;SDS011;9843;48.882;12.592;2023-08-07T11:14:09;6.53;;;3.33;;
19414;SDS011;9843;48.882;12.592;2023-08-07T11:16:36;5.90;;;3.10;;
19414;SDS011;9843;48.882;12.592;2023-08-07T11:19:05;5.50;;;2.90;;
19414;SDS011;9843;48.882;12.592;2023-08-07T11:21:37;2.37;;;2.23;;
19414;SDS011;9843;48.882;12.592;2023-08-07T11:24:07;3.47;;;2.50;;
19414;SDS011;9843;48.882;12.592;2023-08-07T11:26:34;2.73;;;2.53;;
19414;SDS011;9843;48.882;12.592;2023-08-07T11:29:01;3.00;;;2.70;;
19414;SDS011;9843;48.882;12.592;2023-08-07T11:31:28;7.67;;;3.33;;
19414;SDS011;9843;48.882;12.592;2023-08-07T11:33:56;3.27;;;2.97;;
19414;SDS011;9843;48.882;12.592;2023-08-07T11:36:25;4.37;;;3.57;;
19414;SDS011;9843;48.882;12.592;2023-08-07T11:38:53;3.80;;;2.87;;
19414;SDS011;9843;48.882;12.592;2023-08-07T11:41:20;6.73;;;2.70;;
19414;SDS011;9843;48.882;12.592;2023-08-07T11:43:47;5.13;;;2.53;;
19414;SDS011;9843;48.882;12.592;2023-08-07T11:46:14;2.53;;;2.30;;
19414;SDS011;9843;48.882;12.592;2023-08-07T11:48:42;5.30;;;2.87;;
19414;SDS011;9843;48.882;12.592;2023-08-07T11:51:09;3.93;;;2.17;;
19414;SDS011;9843;48.882;12.592;2023-08-07T11:53:39;3.27;;;2.97;;
19414;SDS011;9843;48.882;12.592;2023-08-07T11:56:07;3.13;;;1.90;;
19414;SDS011;9843;48.882;12.592;2023-08-07T11:58:35;1.97;;;1.87;;
19414;SDS011;9843;48.882;12.592;2023-08-07T12:01:05;2.03;;;1.93;;
19414;SDS011;9843;48.882;12.592;2023-08-07T12:03:32;2.47;;;2.27;;
19414;SDS011;9843;48.882;12.592;2023-08-07T12:06:03;2.07;;;1.87;;
19414;SDS011;9843;48.882;12.592;2023-08-07T12:08:31;3.03;;;2.33;;
19414;SDS011;9843;48.882;12.592;2023-08-07T12:11:00;2.83;;;2.57;;
19414;SDS011;9843;48.882;12.592;2023-08-07T12:13:28;3.47;;;2.07;;
19414;SDS011;9843;48.882;12.592;2023-08-07T12:15:57;2.87;;;2.27;;
19414;SDS011;9843;48.882;12.592;2023-08-07T12:18:26;2.77;;;2.00;;
19414;SDS011;9843;48.882;12.592;2023-08-07T12:20:56;2.73;;;2.53;;
19414;SDS011;9843;48.882;12.592;2023-08-07T12:23:24;2.43;;;2.23;;
19414;SDS011;9843;48.882;12.592;2023-08-07T12:25:51;2.10;;;1.93;;
19414;SDS011;9843;48.882;12.592;2023-08-07T12:28:20;2.40;;;2.00;;
19414;SDS011;9843;48.882;12.592;2023-08-07T12:30:47;2.07;;;1.97;;
19414;SDS011;9843;48.882;12.592;2023-08-07T12:33:14;2.00;;;1.90;;
19414;SDS011;9843;48.882;12.592;2023-08-07T12:35:42;4.27;;;1.80;;
19414;SDS011;9843;48.882;12.592;2023-08-07T12:38:09;5.03;;;2.40;;
19414;SDS011;9843;48.882;12.592;2023-08-07T12:40:38;2.57;;;2.13;;
19414;SDS011;9843;48.882;12.592;2023-08-07T12:43:05;1.60;;;1.50;;
19414;SDS011;9843;48.882;12.592;2023-08-07T12:45:34;5.00;;;2.10;;
19414;SDS011;9843;48.882;12.592;2023-08-07T12:48:01;1.70;;;1.60;;
19414;SDS011;9843;48.882;12.592;2023-08-07T12:50:29;2.27;;;2.07;;
19414;SDS011;9843;48.882;12.592;2023-08-07T12:52:56;2.43;;;2.23;;
19414;SDS011;9843;48.882;12.592;2023-08-07T12:55:23;1.53;;;1.47;;
19414;SDS011;9843;48.882;12.592;2023-08-07T12:57:51;1.50;;;1.40;;
19414;SDS011;9843;48.882;12.592;2023-08-07T13:00:18;1.70;;;1.60;;
19414;SDS011;9843;48.882;12.592;2023-08-07T13:02:47;2.03;;;1.73;;
19414;SDS011;9843;48.882;12.592;2023-08-07T13:05:15;2.93;;;1.83;;
19414;SDS011;9843;48.882;12.592;2023-08-07T13:07:43;1.93;;;1.70;;
19414;SDS011;9843;48.882;12.592;2023-08-07T13:10:11;1.93;;;1.70;;
19414;SDS011;9843;48.882;12.592;2023-08-07T13:12:38;2.20;;;2.00;;
19414;SDS011;9843;48.882;12.592;2023-08-07T13:15:06;4.23;;;2.83;;
19414;SDS011;9843;48.882;12.592;2023-08-07T13:17:34;2.17;;;1.97;;
19414;SDS011;9843;48.882;12.592;2023-08-07T13:20:03;1.77;;;1.67;;
19414;SDS011;9843;48.882;12.592;2023-08-07T13:22:33;1.63;;;1.53;;
19414;SDS011;9843;48.882;12.592;2023-08-07T13:25:00;6.70;;;1.90;;
19414;SDS011;9843;48.882;12.592;2023-08-07T13:27:28;1.90;;;1.80;;
19414;SDS011;9843;48.882;12.592;2023-08-07T13:29:55;1.70;;;1.60;;
19414;SDS011;9843;48.882;12.592;2023-08-07T13:32:22;1.90;;;1.80;;
19414;SDS011;9843;48.882;12.592;2023-08-07T13:34:49;2.93;;;1.67;;
19414;SDS011;9843;48.882;12.592;2023-08-07T13:37:18;4.07;;;1.77;;
19414;SDS011;9843;48.882;12.592;2023-08-07T13:39:45;1.60;;;1.50;;
19414;SDS011;9843;48.882;12.592;2023-08-07T13:42:14;2.17;;;1.97;;
19414;SDS011;9843;48.882;12.592;2023-08-07T13:44:41;2.93;;;1.90;;
19414;SDS011;9843;48.882;12.592;2023-08-07T13:47:09;5.43;;;1.67;;
19414;SDS011;9843;48.882;12.592;2023-08-07T13:49:36;2.67;;;2.47;;
19414;SDS011;9843;48.882;12.592;2023-08-07T13:52:04;2.27;;;2.17;;
19414;SDS011;9843;48.882;12.592;2023-08-07T13:54:32;1.47;;;1.37;;
19414;SDS011;9843;48.882;12.592;2023-08-07T13:56:59;2.00;;;1.90;;
19414;SDS011;9843;48.882;12.592;2023-08-07T13:59:26;1.93;;;1.40;;
19414;SDS011;9843;48.882;12.592;2023-08-07T14:01:53;3.30;;;3.10;;
19414;SDS011;9843;48.882;12.592;2023-08-07T14:04:21;1.77;;;1.67;;
19414;SDS011;9843;48.882;12.592;2023-08-07T14:06:48;3.93;;;2.10;;
19414;SDS011;9843;48.882;12.592;2023-08-07T14:09:15;4.47;;;1.90;;
19414;SDS011;9843;48.882;12.592;2023-08-07T14:11:45;3.13;;;1.80;;
19414;SDS011;9843;48.882;12.592;2023-08-07T14:14:12;2.37;;;2.10;;
19414;SDS011;9843;48.882;12.592;2023-08-07T14:16:39;2.27;;;1.70;;
19414;SDS011;9843;48.882;12.592;2023-08-07T14:19:06;1.93;;;1.73;;
19414;SDS011;9843;48.882;12.592;2023-08-07T14:21:33;1.57;;;1.47;;
19414;SDS011;9843;48.882;12.592;2023-08-07T14:24:00;2.03;;;1.93;;
19414;SDS011;9843;48.882;12.592;2023-08-07T14:26:27;4.90;;;1.73;;
19414;SDS011;9843;48.882;12.592;2023-08-07T14:28:55;3.23;;;1.67;;
19414;SDS011;9843;48.882;12.592;2023-08-07T14:31:22;2.03;;;1.90;;
19414;SDS011;9843;48.882;12.592;2023-08-07T14:33:49;1.50;;;1.40;;
19414;SDS011;9843;48.882;12.592;2023-08-07T14:36:17;1.30;;;1.20;;
19414;SDS011;9843;48.882;12.592;2023-08-07T14:38:44;6.47;;;1.60;;
19414;SDS011;9843;48.882;12.592;2023-08-07T14:41:11;2.00;;;1.10;;
19414;SDS011;9843;48.882;12.592;2023-08-07T14:43:38;1.40;;;1.30;;
19414;SDS011;9843;48.882;12.592;2023-08-07T14:46:06;1.60;;;1.50;;
19414;SDS011;9843;48.882;12.592;2023-08-07T14:48:33;1.60;;;1.50;;
19414;SDS011;9843;48.882;12.592;2023-08-07T14:51:00;2.20;;;1.60;;